createdAt,value
2018-09-09T00:11:37.392Z,17.96
2018-09-09T00:26:41.281Z,17.97
2018-09-09T00:41:45.114Z,17.92
2018-09-09T00:56:48.856Z,17.34
2018-09-09T01:11:52.691Z,17.74
2018-09-09T01:26:56.455Z,17.79
2018-09-09T01:42:00.209Z,17.44
2018-09-09T01:57:03.945Z,17.25
2018-09-09T02:12:07.694Z,17.18
2018-09-09T02:27:11.490Z,17.10
2018-09-09T02:42:15.221Z,16.92
2018-09-09T02:57:19.100Z,16.80
2018-09-09T03:12:22.911Z,16.68
2018-09-09T03:27:26.730Z,16.71
2018-09-09T03:42:30.496Z,16.49
2018-09-09T03:57:35.399Z,16.53
2018-09-09T04:12:39.188Z,16.62
2018-09-09T04:27:42.927Z,17.39
2018-09-09T04:42:46.674Z,18.83
2018-09-09T04:57:50.420Z,20.48
2018-09-09T05:12:54.151Z,22.28
2018-09-09T05:27:57.930Z,23.20
2018-09-09T05:43:01.690Z,24.00
2018-09-09T05:58:06.099Z,24.75
2018-09-09T06:13:09.884Z,26.88
2018-09-09T06:28:13.796Z,27.69
2018-09-09T06:43:17.538Z,28.90
2018-09-09T06:58:21.279Z,30.46
2018-09-09T07:13:25.027Z,32.23
2018-09-09T07:28:30.598Z,32.40
2018-09-09T07:43:34.344Z,32.58
2018-09-09T07:58:38.100Z,33.68
2018-09-09T08:13:41.852Z,33.24
2018-09-09T08:28:45.602Z,29.91
2018-09-09T08:43:49.364Z,32.17
2018-09-09T08:58:53.159Z,31.63
2018-09-09T09:13:56.925Z,30.00
2018-09-09T09:29:00.741Z,29.20
2018-09-09T09:44:05.306Z,30.88
2018-09-09T09:59:09.348Z,32.00
2018-09-09T10:14:13.148Z,31.10
2018-09-09T10:29:16.926Z,28.67
2018-09-09T10:44:20.738Z,30.23
2018-09-09T10:59:24.506Z,30.28
2018-09-09T11:14:28.547Z,30.78
2018-09-09T11:29:32.469Z,30.94
2018-09-09T11:44:36.312Z,23.54
2018-09-09T11:59:40.090Z,23.05
2018-09-09T12:14:44.693Z,23.51
2018-09-09T12:29:48.651Z,24.94
2018-09-09T13:00:48.519Z,25.61
2018-09-09T13:15:52.873Z,24.69
2018-09-09T13:30:56.784Z,26.19
2018-09-09T13:46:00.795Z,23.64
2018-09-09T14:01:04.736Z,20.16
2018-09-09T14:16:09.673Z,20.54
2018-09-09T14:31:13.636Z,21.86
2018-09-09T14:46:19.375Z,21.98
2018-09-09T15:01:23.316Z,21.75
2018-09-09T15:16:27.323Z,21.74
2018-09-09T15:31:31.643Z,21.98
2018-09-09T15:46:35.929Z,21.73
2018-09-09T16:01:40.270Z,21.34
2018-09-09T16:16:44.290Z,20.89
2018-09-09T16:31:48.304Z,20.42
2018-09-09T16:46:52.360Z,20.00
2018-09-09T17:01:56.279Z,19.77
2018-09-09T17:17:00.385Z,19.76
2018-09-09T17:32:04.448Z,19.49
2018-09-09T17:47:08.507Z,19.59
2018-09-09T18:02:12.783Z,19.48
2018-09-09T18:17:16.833Z,19.40
2018-09-09T18:32:20.797Z,19.21
2018-09-09T18:47:24.723Z,19.13
2018-09-09T19:02:30.140Z,18.97
2018-09-09T19:17:34.084Z,18.81
2018-09-09T19:32:37.959Z,18.71
2018-09-09T19:47:41.948Z,18.55
2018-09-09T20:02:45.946Z,18.52
2018-09-09T20:17:49.895Z,18.18
2018-09-09T20:32:53.899Z,18.19
2018-09-09T20:47:57.810Z,17.99
2018-09-09T21:03:02.164Z,17.75
2018-09-09T21:18:06.091Z,18.05
2018-09-09T21:33:10.013Z,17.92
2018-09-09T21:48:14.006Z,17.72
2018-09-09T22:03:17.868Z,17.74
2018-09-09T22:18:21.735Z,17.61
2018-09-09T22:33:25.643Z,17.57
2018-09-09T22:48:29.802Z,17.63
2018-09-09T23:03:33.694Z,17.44
2018-09-09T23:18:37.531Z,17.42
2018-09-09T23:33:41.345Z,17.36
2018-09-09T23:48:46.219Z,17.35
